Aviation Digital Data Service (ADDS)

Output produced by METARs form (0030 UTC 21 January 2019)
found at http://www.aviationweather.gov/metar/data/
 
METAR text: EGNT 210020Z VRB02KT CAVOK M00/M01 Q1024
Conditions at: EGNT (NEWCASTLE , GB) observed 0020 UTC 21 January 2019
Temperature: 0.0°C (32°F)
Dewpoint: -1.0°C (30°F) [RH = 93%]
Pressure (altimeter): 30.24 inches Hg (1024.0 mb)
Winds: variable direction winds at 2 MPH (2 knots; 1.0 m/s)
Visibility: 6 or more miles (10+ km)
Ceiling: ceiling and visibility are OK
Clouds: unknown
Weather: no significant weather observed at this time

METAR text: EGNT 202350Z 25004KT CAVOK M01/M01 Q1024
Conditions at: EGNT (NEWCASTLE , GB) observed 2350 UTC 20 January 2019
Temperature: -1.0°C (30°F)
Dewpoint: -1.0°C (30°F) [RH = 100%]
Pressure (altimeter): 30.24 inches Hg (1024.0 mb)
Winds: from the WSW (250 degrees) at 5 MPH (4 knots; 2.1 m/s)
Visibility: 6 or more miles (10+ km)
Ceiling: ceiling and visibility are OK
Clouds: unknown
Weather: no significant weather observed at this time

METAR text: EGNT 202320Z 28005KT CAVOK M01/M02 Q1024
Conditions at: EGNT (NEWCASTLE , GB) observed 2320 UTC 20 January 2019
Temperature: -1.0°C (30°F)
Dewpoint: -2.0°C (28°F) [RH = 93%]
Pressure (altimeter): 30.24 inches Hg (1024.0 mb)
Winds: from the W (280 degrees) at 6 MPH (5 knots; 2.6 m/s)
Visibility: 6 or more miles (10+ km)
Ceiling: ceiling and visibility are OK
Clouds: unknown
Weather: no significant weather observed at this time

METAR text: EGNT 202250Z 29006KT CAVOK 00/M00 Q1024
Conditions at: EGNT (NEWCASTLE , GB) observed 2250 UTC 20 January 2019
Temperature: 0.0°C (32°F)
Dewpoint: 0.0°C (32°F) [RH = 100%]
Pressure (altimeter): 30.24 inches Hg (1024.0 mb)
Winds: from the WNW (290 degrees) at 7 MPH (6 knots; 3.1 m/s)
Visibility: 6 or more miles (10+ km)
Ceiling: ceiling and visibility are OK
Clouds: unknown
Weather: no significant weather observed at this time

METAR text: EGNT 202220Z 28005KT CAVOK M01/M01 Q1023
Conditions at: EGNT (NEWCASTLE , GB) observed 2220 UTC 20 January 2019
Temperature: -1.0°C (30°F)
Dewpoint: -1.0°C (30°F) [RH = 100%]
Pressure (altimeter): 30.21 inches Hg (1023.0 mb)
Winds: from the W (280 degrees) at 6 MPH (5 knots; 2.6 m/s)
Visibility: 6 or more miles (10+ km)
Ceiling: ceiling and visibility are OK
Clouds: unknown
Weather: no significant weather observed at this time

METAR text: EGNT 202150Z 28002KT 9999 FEW025 00/M00 Q1023
Conditions at: EGNT (NEWCASTLE , GB) observed 2150 UTC 20 January 2019
Temperature: 0.0°C (32°F)
Dewpoint: 0.0°C (32°F) [RH = 100%]
Pressure (altimeter): 30.21 inches Hg (1023.0 mb)
Winds: from the W (280 degrees) at 2 MPH (2 knots; 1.0 m/s)
Visibility: 6 or more miles (10+ km)
Ceiling: at least 12,000 feet AGL
Clouds: few clouds at 2500 feet AGL
Weather: no significant weather observed at this time

METAR text: EGNT 202120Z VRB02KT 9999 FEW025 00/M00 Q1023
Conditions at: EGNT (NEWCASTLE , GB) observed 2120 UTC 20 January 2019
Temperature: 0.0°C (32°F)
Dewpoint: 0.0°C (32°F) [RH = 100%]
Pressure (altimeter): 30.21 inches Hg (1023.0 mb)
Winds: variable direction winds at 2 MPH (2 knots; 1.0 m/s)
Visibility: 6 or more miles (10+ km)
Ceiling: at least 12,000 feet AGL
Clouds: few clouds at 2500 feet AGL
Weather: no significant weather observed at this time

METAR text: EGNT 202050Z 29003KT 9999 BKN025 01/00 Q1022
Conditions at: EGNT (NEWCASTLE , GB) observed 2050 UTC 20 January 2019
Temperature: 1.0°C (34°F)
Dewpoint: 0.0°C (32°F) [RH = 93%]
Pressure (altimeter): 30.18 inches Hg (1022.0 mb)
Winds: from the WNW (290 degrees) at 3 MPH (3 knots; 1.5 m/s)
Visibility: 6 or more miles (10+ km)
Ceiling: 2500 feet AGL
Clouds: broken clouds at 2500 feet AGL
Weather: no significant weather observed at this time

METAR text: EGNT 202020Z 27002KT 9999 BKN025 02/02 Q1022
Conditions at: EGNT (NEWCASTLE , GB) observed 2020 UTC 20 January 2019
Temperature: 2.0°C (36°F)
Dewpoint: 2.0°C (36°F) [RH = 100%]
Pressure (altimeter): 30.18 inches Hg (1022.0 mb)
Winds: from the W (270 degrees) at 2 MPH (2 knots; 1.0 m/s)
Visibility: 6 or more miles (10+ km)
Ceiling: 2500 feet AGL
Clouds: broken clouds at 2500 feet AGL
Weather: no significant weather observed at this time

METAR text: EGNT 201950Z 29004KT 9999 BKN025 03/02 Q1022
Conditions at: EGNT (NEWCASTLE , GB) observed 1950 UTC 20 January 2019
Temperature: 3.0°C (37°F)
Dewpoint: 2.0°C (36°F) [RH = 93%]
Pressure (altimeter): 30.18 inches Hg (1022.0 mb)
Winds: from the WNW (290 degrees) at 5 MPH (4 knots; 2.1 m/s)
Visibility: 6 or more miles (10+ km)
Ceiling: 2500 feet AGL
Clouds: broken clouds at 2500 feet AGL
Weather: no significant weather observed at this time

METAR text: EGNT 201850Z VRB03KT 9999 BKN025 04/03 Q1021
Conditions at: EGNT (NEWCASTLE , GB) observed 1850 UTC 20 January 2019
Temperature: 4.0°C (39°F)
Dewpoint: 3.0°C (37°F) [RH = 93%]
Pressure (altimeter): 30.15 inches Hg (1021.0 mb)
Winds: variable direction winds at 3 MPH (3 knots; 1.5 m/s)
Visibility: 6 or more miles (10+ km)
Ceiling: 2500 feet AGL
Clouds: broken clouds at 2500 feet AGL
Weather: no significant weather observed at this time

METAR text: EGNT 201820Z 33007KT 7000 -SHRA BKN008 05/03 Q1021
Conditions at: EGNT (NEWCASTLE , GB) observed 1820 UTC 20 January 2019
Temperature: 5.0°C (41°F)
Dewpoint: 3.0°C (37°F) [RH = 87%]
Pressure (altimeter): 30.15 inches Hg (1021.0 mb)
Winds: from the NNW (330 degrees) at 8 MPH (7 knots; 3.6 m/s)
Visibility: 4 miles ( 7 km)
Ceiling: 800 feet AGL
Clouds: broken clouds at 800 feet AGL
Weather: -SHRA  (light rain showers)

METAR text: EGNT 201750Z 28005KT 9999 -SHRA BKN017 04/02 Q1020
Conditions at: EGNT (NEWCASTLE , GB) observed 1750 UTC 20 January 2019
Temperature: 4.0°C (39°F)
Dewpoint: 2.0°C (36°F) [RH = 87%]
Pressure (altimeter): 30.12 inches Hg (1020.0 mb)
Winds: from the W (280 degrees) at 6 MPH (5 knots; 2.6 m/s)
Visibility: 6 or more miles (10+ km)
Ceiling: 1700 feet AGL
Clouds: broken clouds at 1700 feet AGL
Weather: -SHRA  (light rain showers)

METAR text: EGNT 201720Z 27008KT 9999 SCT018 05/02 Q1020
Conditions at: EGNT (NEWCASTLE , GB) observed 1720 UTC 20 January 2019
Temperature: 5.0°C (41°F)
Dewpoint: 2.0°C (36°F) [RH = 81%]
Pressure (altimeter): 30.12 inches Hg (1020.0 mb)
Winds: from the W (270 degrees) at 9 MPH (8 knots; 4.1 m/s)
Visibility: 6 or more miles (10+ km)
Ceiling: at least 12,000 feet AGL
Clouds: scattered clouds at 1800 feet AGL
Weather: no significant weather observed at this time

METAR text: EGNT 201650Z 25005KT 9999 SCT020 04/02 Q1019
Conditions at: EGNT (NEWCASTLE , GB) observed 1650 UTC 20 January 2019
Temperature: 4.0°C (39°F)
Dewpoint: 2.0°C (36°F) [RH = 87%]
Pressure (altimeter): 30.09 inches Hg (1019.0 mb)
Winds: from the WSW (250 degrees) at 6 MPH (5 knots; 2.6 m/s)
Visibility: 6 or more miles (10+ km)
Ceiling: at least 12,000 feet AGL
Clouds: scattered clouds at 2000 feet AGL
Weather: no significant weather observed at this time

METAR text: EGNT 201620Z 25007KT 9999 FEW020 04/02 Q1019
Conditions at: EGNT (NEWCASTLE , GB) observed 1620 UTC 20 January 2019
Temperature: 4.0°C (39°F)
Dewpoint: 2.0°C (36°F) [RH = 87%]
Pressure (altimeter): 30.09 inches Hg (1019.0 mb)
Winds: from the WSW (250 degrees) at 8 MPH (7 knots; 3.6 m/s)
Visibility: 6 or more miles (10+ km)
Ceiling: at least 12,000 feet AGL
Clouds: few clouds at 2000 feet AGL
Weather: no significant weather observed at this time

METAR text: EGNT 201550Z 25005KT 9999 FEW020 04/02 Q1019
Conditions at: EGNT (NEWCASTLE , GB) observed 1550 UTC 20 January 2019
Temperature: 4.0°C (39°F)
Dewpoint: 2.0°C (36°F) [RH = 87%]
Pressure (altimeter): 30.09 inches Hg (1019.0 mb)
Winds: from the WSW (250 degrees) at 6 MPH (5 knots; 2.6 m/s)
Visibility: 6 or more miles (10+ km)
Ceiling: at least 12,000 feet AGL
Clouds: few clouds at 2000 feet AGL
Weather: no significant weather observed at this time

METAR text: EGNT 201520Z 26007KT 9999 FEW010 03/01 Q1019
Conditions at: EGNT (NEWCASTLE , GB) observed 1520 UTC 20 January 2019
Temperature: 3.0°C (37°F)
Dewpoint: 1.0°C (34°F) [RH = 87%]
Pressure (altimeter): 30.09 inches Hg (1019.0 mb)
Winds: from the W (260 degrees) at 8 MPH (7 knots; 3.6 m/s)
Visibility: 6 or more miles (10+ km)
Ceiling: at least 12,000 feet AGL
Clouds: few clouds at 1000 feet AGL
Weather: no significant weather observed at this time

METAR text: EGNT 201450Z 27008KT 9999 FEW010 04/02 Q1018
Conditions at: EGNT (NEWCASTLE , GB) observed 1450 UTC 20 January 2019
Temperature: 4.0°C (39°F)
Dewpoint: 2.0°C (36°F) [RH = 87%]
Pressure (altimeter): 30.06 inches Hg (1018.0 mb)
Winds: from the W (270 degrees) at 9 MPH (8 knots; 4.1 m/s)
Visibility: 6 or more miles (10+ km)
Ceiling: at least 12,000 feet AGL
Clouds: few clouds at 1000 feet AGL
Weather: no significant weather observed at this time

METAR text: EGNT 201420Z 27009KT 9999 FEW010 05/02 Q1018
Conditions at: EGNT (NEWCASTLE , GB) observed 1420 UTC 20 January 2019
Temperature: 5.0°C (41°F)
Dewpoint: 2.0°C (36°F) [RH = 81%]
Pressure (altimeter): 30.06 inches Hg (1018.0 mb)
Winds: from the W (270 degrees) at 10 MPH (9 knots; 4.6 m/s)
Visibility: 6 or more miles (10+ km)
Ceiling: at least 12,000 feet AGL
Clouds: few clouds at 1000 feet AGL
Weather: no significant weather observed at this time

METAR text: EGNT 201350Z 28010KT 9999 FEW010 05/02 Q1018
Conditions at: EGNT (NEWCASTLE , GB) observed 1350 UTC 20 January 2019
Temperature: 5.0°C (41°F)
Dewpoint: 2.0°C (36°F) [RH = 81%]
Pressure (altimeter): 30.06 inches Hg (1018.0 mb)
Winds: from the W (280 degrees) at 12 MPH (10 knots; 5.1 m/s)
Visibility: 6 or more miles (10+ km)
Ceiling: at least 12,000 feet AGL
Clouds: few clouds at 1000 feet AGL
Weather: no significant weather observed at this time

METAR text: EGNT 201320Z 27011KT 9000 SCT010 05/02 Q1018
Conditions at: EGNT (NEWCASTLE , GB) observed 1320 UTC 20 January 2019
Temperature: 5.0°C (41°F)
Dewpoint: 2.0°C (36°F) [RH = 81%]
Pressure (altimeter): 30.06 inches Hg (1018.0 mb)
Winds: from the W (270 degrees) at 13 MPH (11 knots; 5.7 m/s)
Visibility: 6 miles ( 9 km)
Ceiling: at least 12,000 feet AGL
Clouds: scattered clouds at 1000 feet AGL
Weather: no significant weather observed at this time

METAR text: EGNT 201250Z 28010KT 9000 SCT010 05/02 Q1017
Conditions at: EGNT (NEWCASTLE , GB) observed 1250 UTC 20 January 2019
Temperature: 5.0°C (41°F)
Dewpoint: 2.0°C (36°F) [RH = 81%]
Pressure (altimeter): 30.03 inches Hg (1017.0 mb)
Winds: from the W (280 degrees) at 12 MPH (10 knots; 5.1 m/s)
Visibility: 6 miles ( 9 km)
Ceiling: at least 12,000 feet AGL
Clouds: scattered clouds at 1000 feet AGL
Weather: no significant weather observed at this time

METAR text: EGNT 201220Z 28008KT 9000 BKN010 04/02 Q1017
Conditions at: EGNT (NEWCASTLE , GB) observed 1220 UTC 20 January 2019
Temperature: 4.0°C (39°F)
Dewpoint: 2.0°C (36°F) [RH = 87%]
Pressure (altimeter): 30.03 inches Hg (1017.0 mb)
Winds: from the W (280 degrees) at 9 MPH (8 knots; 4.1 m/s)
Visibility: 6 miles ( 9 km)
Ceiling: 1000 feet AGL
Clouds: broken clouds at 1000 feet AGL
Weather: no significant weather observed at this time

METAR text: EGNT 201150Z 27010KT 9000 FEW040 05/02 Q1017
Conditions at: EGNT (NEWCASTLE , GB) observed 1150 UTC 20 January 2019
Temperature: 5.0°C (41°F)
Dewpoint: 2.0°C (36°F) [RH = 81%]
Pressure (altimeter): 30.03 inches Hg (1017.0 mb)
Winds: from the W (270 degrees) at 12 MPH (10 knots; 5.1 m/s)
Visibility: 6 miles ( 9 km)
Ceiling: at least 12,000 feet AGL
Clouds: few clouds at 4000 feet AGL
Weather: no significant weather observed at this time

METAR text: EGNT 201120Z 27007KT 9000 FEW040 05/02 Q1017
Conditions at: EGNT (NEWCASTLE , GB) observed 1120 UTC 20 January 2019
Temperature: 5.0°C (41°F)
Dewpoint: 2.0°C (36°F) [RH = 81%]
Pressure (altimeter): 30.03 inches Hg (1017.0 mb)
Winds: from the W (270 degrees) at 8 MPH (7 knots; 3.6 m/s)
Visibility: 6 miles ( 9 km)
Ceiling: at least 12,000 feet AGL
Clouds: few clouds at 4000 feet AGL
Weather: no significant weather observed at this time

METAR text: EGNT 201050Z 27004KT 8000 FEW035 04/02 Q1017
Conditions at: EGNT (NEWCASTLE , GB) observed 1050 UTC 20 January 2019
Temperature: 4.0°C (39°F)
Dewpoint: 2.0°C (36°F) [RH = 87%]
Pressure (altimeter): 30.03 inches Hg (1017.0 mb)
Winds: from the W (270 degrees) at 5 MPH (4 knots; 2.1 m/s)
Visibility: 5 miles ( 8 km)
Ceiling: at least 12,000 feet AGL
Clouds: few clouds at 3500 feet AGL
Weather: no significant weather observed at this time

METAR text: EGNT 201020Z 25004KT 8000 FEW035 03/02 Q1016
Conditions at: EGNT (NEWCASTLE , GB) observed 1020 UTC 20 January 2019
Temperature: 3.0°C (37°F)
Dewpoint: 2.0°C (36°F) [RH = 93%]
Pressure (altimeter): 30.00 inches Hg (1016.0 mb)
Winds: from the WSW (250 degrees) at 5 MPH (4 knots; 2.1 m/s)
Visibility: 5 miles ( 8 km)
Ceiling: at least 12,000 feet AGL
Clouds: few clouds at 3500 feet AGL
Weather: no significant weather observed at this time

METAR text: EGNT 200950Z 19002KT 8000 FEW036 03/02 Q1016
Conditions at: EGNT (NEWCASTLE , GB) observed 0950 UTC 20 January 2019
Temperature: 3.0°C (37°F)
Dewpoint: 2.0°C (36°F) [RH = 93%]
Pressure (altimeter): 30.00 inches Hg (1016.0 mb)
Winds: from the S (190 degrees) at 2 MPH (2 knots; 1.0 m/s)
Visibility: 5 miles ( 8 km)
Ceiling: at least 12,000 feet AGL
Clouds: few clouds at 3600 feet AGL
Weather: no significant weather observed at this time

METAR text: EGNT 200920Z 22003KT 6000 SCT038 01/01 Q1016
Conditions at: EGNT (NEWCASTLE , GB) observed 0920 UTC 20 January 2019
Temperature: 1.0°C (34°F)
Dewpoint: 1.0°C (34°F) [RH = 100%]
Pressure (altimeter): 30.00 inches Hg (1016.0 mb)
Winds: from the SW (220 degrees) at 3 MPH (3 knots; 1.5 m/s)
Visibility: 4 miles ( 6 km)
Ceiling: at least 12,000 feet AGL
Clouds: scattered clouds at 3800 feet AGL
Weather: no significant weather observed at this time

METAR text: EGNT 200850Z 20002KT 6000 BKN041 02/01 Q1016
Conditions at: EGNT (NEWCASTLE , GB) observed 0850 UTC 20 January 2019
Temperature: 2.0°C (36°F)
Dewpoint: 1.0°C (34°F) [RH = 93%]
Pressure (altimeter): 30.00 inches Hg (1016.0 mb)
Winds: from the SSW (200 degrees) at 2 MPH (2 knots; 1.0 m/s)
Visibility: 4 miles ( 6 km)
Ceiling: 4100 feet AGL
Clouds: broken clouds at 4100 feet AGL
Weather: no significant weather observed at this time

METAR text: EGNT 200820Z VRB03KT 6000 FEW024 BKN044 02/01 Q1015
Conditions at: EGNT (NEWCASTLE , GB) observed 0820 UTC 20 January 2019
Temperature: 2.0°C (36°F)
Dewpoint: 1.0°C (34°F) [RH = 93%]
Pressure (altimeter): 29.97 inches Hg (1015.0 mb)
Winds: variable direction winds at 3 MPH (3 knots; 1.5 m/s)
Visibility: 4 miles ( 6 km)
Ceiling: 4400 feet AGL
Clouds: few clouds at 2400 feet AGL
broken clouds at 4400 feet AGL
Weather: no significant weather observed at this time

METAR text: EGNT 200750Z 25004KT 6000 BKN045 02/01 Q1015
Conditions at: EGNT (NEWCASTLE , GB) observed 0750 UTC 20 January 2019
Temperature: 2.0°C (36°F)
Dewpoint: 1.0°C (34°F) [RH = 93%]
Pressure (altimeter): 29.97 inches Hg (1015.0 mb)
Winds: from the WSW (250 degrees) at 5 MPH (4 knots; 2.1 m/s)
Visibility: 4 miles ( 6 km)
Ceiling: 4500 feet AGL
Clouds: broken clouds at 4500 feet AGL
Weather: no significant weather observed at this time

METAR text: EGNT 200720Z 24003KT 9999 FEW027 BKN046 01/01 Q1015
Conditions at: EGNT (NEWCASTLE , GB) observed 0720 UTC 20 January 2019
Temperature: 1.0°C (34°F)
Dewpoint: 1.0°C (34°F) [RH = 100%]
Pressure (altimeter): 29.97 inches Hg (1015.0 mb)
Winds: from the WSW (240 degrees) at 3 MPH (3 knots; 1.5 m/s)
Visibility: 6 or more miles (10+ km)
Ceiling: 4600 feet AGL
Clouds: few clouds at 2700 feet AGL
broken clouds at 4600 feet AGL
Weather: no significant weather observed at this time

METAR text: EGNT 200650Z 23002KT 9999 FEW027 BKN046 02/01 Q1014
Conditions at: EGNT (NEWCASTLE , GB) observed 0650 UTC 20 January 2019
Temperature: 2.0°C (36°F)
Dewpoint: 1.0°C (34°F) [RH = 93%]
Pressure (altimeter): 29.94 inches Hg (1014.0 mb)
Winds: from the SW (230 degrees) at 2 MPH (2 knots; 1.0 m/s)
Visibility: 6 or more miles (10+ km)
Ceiling: 4600 feet AGL
Clouds: few clouds at 2700 feet AGL
broken clouds at 4600 feet AGL
Weather: no significant weather observed at this time

METAR text: EGNT 200620Z 23002KT 6000 FEW023 BKN040 02/01 Q1014
Conditions at: EGNT (NEWCASTLE , GB) observed 0620 UTC 20 January 2019
Temperature: 2.0°C (36°F)
Dewpoint: 1.0°C (34°F) [RH = 93%]
Pressure (altimeter): 29.94 inches Hg (1014.0 mb)
Winds: from the SW (230 degrees) at 2 MPH (2 knots; 1.0 m/s)
Visibility: 4 miles ( 6 km)
Ceiling: 4000 feet AGL
Clouds: few clouds at 2300 feet AGL
broken clouds at 4000 feet AGL
Weather: no significant weather observed at this time

METAR text: EGNT 200550Z 24002KT 6000 FEW023 BKN040 02/01 Q1013
Conditions at: EGNT (NEWCASTLE , GB) observed 0550 UTC 20 January 2019
Temperature: 2.0°C (36°F)
Dewpoint: 1.0°C (34°F) [RH = 93%]
Pressure (altimeter): 29.91 inches Hg (1013.0 mb)
Winds: from the WSW (240 degrees) at 2 MPH (2 knots; 1.0 m/s)
Visibility: 4 miles ( 6 km)
Ceiling: 4000 feet AGL
Clouds: few clouds at 2300 feet AGL
broken clouds at 4000 feet AGL
Weather: no significant weather observed at this time

METAR text: EGNT 200520Z 27002KT 6000 FEW023 BKN040 02/01 Q1013
Conditions at: EGNT (NEWCASTLE , GB) observed 0520 UTC 20 January 2019
Temperature: 2.0°C (36°F)
Dewpoint: 1.0°C (34°F) [RH = 93%]
Pressure (altimeter): 29.91 inches Hg (1013.0 mb)
Winds: from the W (270 degrees) at 2 MPH (2 knots; 1.0 m/s)
Visibility: 4 miles ( 6 km)
Ceiling: 4000 feet AGL
Clouds: few clouds at 2300 feet AGL
broken clouds at 4000 feet AGL
Weather: no significant weather observed at this time

METAR text: EGNT 200450Z 24002KT 6000 FEW023 BKN040 02/01 Q1013
Conditions at: EGNT (NEWCASTLE , GB) observed 0450 UTC 20 January 2019
Temperature: 2.0°C (36°F)
Dewpoint: 1.0°C (34°F) [RH = 93%]
Pressure (altimeter): 29.91 inches Hg (1013.0 mb)
Winds: from the WSW (240 degrees) at 2 MPH (2 knots; 1.0 m/s)
Visibility: 4 miles ( 6 km)
Ceiling: 4000 feet AGL
Clouds: few clouds at 2300 feet AGL
broken clouds at 4000 feet AGL
Weather: no significant weather observed at this time

METAR text: EGNT 200420Z 19001KT 6000 BKN040 02/01 Q1013
Conditions at: EGNT (NEWCASTLE , GB) observed 0420 UTC 20 January 2019
Temperature: 2.0°C (36°F)
Dewpoint: 1.0°C (34°F) [RH = 93%]
Pressure (altimeter): 29.91 inches Hg (1013.0 mb)
Winds: from the S (190 degrees) at 1 MPH (1 knots; 0.5 m/s)
Visibility: 4 miles ( 6 km)
Ceiling: 4000 feet AGL
Clouds: broken clouds at 4000 feet AGL
Weather: no significant weather observed at this time

METAR text: EGNT 200350Z 18002KT 6000 BKN044 02/01 Q1013
Conditions at: EGNT (NEWCASTLE , GB) observed 0350 UTC 20 January 2019
Temperature: 2.0°C (36°F)
Dewpoint: 1.0°C (34°F) [RH = 93%]
Pressure (altimeter): 29.91 inches Hg (1013.0 mb)
Winds: from the S (180 degrees) at 2 MPH (2 knots; 1.0 m/s)
Visibility: 4 miles ( 6 km)
Ceiling: 4400 feet AGL
Clouds: broken clouds at 4400 feet AGL
Weather: no significant weather observed at this time

METAR text: EGNT 200320Z VRB02KT 6000 BKN044 02/01 Q1013
Conditions at: EGNT (NEWCASTLE , GB) observed 0320 UTC 20 January 2019
Temperature: 2.0°C (36°F)
Dewpoint: 1.0°C (34°F) [RH = 93%]
Pressure (altimeter): 29.91 inches Hg (1013.0 mb)
Winds: variable direction winds at 2 MPH (2 knots; 1.0 m/s)
Visibility: 4 miles ( 6 km)
Ceiling: 4400 feet AGL
Clouds: broken clouds at 4400 feet AGL
Weather: no significant weather observed at this time

METAR text: EGNT 200250Z VRB02KT 6000 SCT018 BKN044 02/01 Q1013
Conditions at: EGNT (NEWCASTLE , GB) observed 0250 UTC 20 January 2019
Temperature: 2.0°C (36°F)
Dewpoint: 1.0°C (34°F) [RH = 93%]
Pressure (altimeter): 29.91 inches Hg (1013.0 mb)
Winds: variable direction winds at 2 MPH (2 knots; 1.0 m/s)
Visibility: 4 miles ( 6 km)
Ceiling: 4400 feet AGL
Clouds: scattered clouds at 1800 feet AGL
broken clouds at 4400 feet AGL
Weather: no significant weather observed at this time

METAR text: EGNT 200220Z 14002KT 6000 SCT018 BKN044 02/01 Q1012
Conditions at: EGNT (NEWCASTLE , GB) observed 0220 UTC 20 January 2019
Temperature: 2.0°C (36°F)
Dewpoint: 1.0°C (34°F) [RH = 93%]
Pressure (altimeter): 29.88 inches Hg (1012.0 mb)
Winds: from the SE (140 degrees) at 2 MPH (2 knots; 1.0 m/s)
Visibility: 4 miles ( 6 km)
Ceiling: 4400 feet AGL
Clouds: scattered clouds at 1800 feet AGL
broken clouds at 4400 feet AGL
Weather: no significant weather observed at this time

METAR text: EGNT 200150Z 15001KT 6000 SCT018 BKN044 02/01 Q1012
Conditions at: EGNT (NEWCASTLE , GB) observed 0150 UTC 20 January 2019
Temperature: 2.0°C (36°F)
Dewpoint: 1.0°C (34°F) [RH = 93%]
Pressure (altimeter): 29.88 inches Hg (1012.0 mb)
Winds: from the SSE (150 degrees) at 1 MPH (1 knots; 0.5 m/s)
Visibility: 4 miles ( 6 km)
Ceiling: 4400 feet AGL
Clouds: scattered clouds at 1800 feet AGL
broken clouds at 4400 feet AGL
Weather: no significant weather observed at this time

METAR text: EGNT 200120Z VRB02KT 6000 SCT018 BKN044 01/00 Q1012
Conditions at: EGNT (NEWCASTLE , GB) observed 0120 UTC 20 January 2019
Temperature: 1.0°C (34°F)
Dewpoint: 0.0°C (32°F) [RH = 93%]
Pressure (altimeter): 29.88 inches Hg (1012.0 mb)
Winds: variable direction winds at 2 MPH (2 knots; 1.0 m/s)
Visibility: 4 miles ( 6 km)
Ceiling: 4400 feet AGL
Clouds: scattered clouds at 1800 feet AGL
broken clouds at 4400 feet AGL
Weather: no significant weather observed at this time

METAR text: EGNT 200050Z 12002KT 6000 SCT018 BKN044 02/01 Q1012
Conditions at: EGNT (NEWCASTLE , GB) observed 0050 UTC 20 January 2019
Temperature: 2.0°C (36°F)
Dewpoint: 1.0°C (34°F) [RH = 93%]
Pressure (altimeter): 29.88 inches Hg (1012.0 mb)
Winds: from the ESE (120 degrees) at 2 MPH (2 knots; 1.0 m/s)
Visibility: 4 miles ( 6 km)
Ceiling: 4400 feet AGL
Clouds: scattered clouds at 1800 feet AGL
broken clouds at 4400 feet AGL
Weather: no significant weather observed at this time

METAR text: EGNT 200020Z 13001KT 6000 SCT018 BKN044 01/01 Q1012
Conditions at: EGNT (NEWCASTLE , GB) observed 0020 UTC 20 January 2019
Temperature: 1.0°C (34°F)
Dewpoint: 1.0°C (34°F) [RH = 100%]
Pressure (altimeter): 29.88 inches Hg (1012.0 mb)
Winds: from the SE (130 degrees) at 1 MPH (1 knots; 0.5 m/s)
Visibility: 4 miles ( 6 km)
Ceiling: 4400 feet AGL
Clouds: scattered clouds at 1800 feet AGL
broken clouds at 4400 feet AGL
Weather: no significant weather observed at this time

METAR text: EGNT 192350Z 00000KT 6000 FEW018 BKN044 02/01 Q1012
Conditions at: EGNT (NEWCASTLE , GB) observed 2350 UTC 19 January 2019
Temperature: 2.0°C (36°F)
Dewpoint: 1.0°C (34°F) [RH = 93%]
Pressure (altimeter): 29.88 inches Hg (1012.0 mb)
Winds: calm
Visibility: 4 miles ( 6 km)
Ceiling: 4400 feet AGL
Clouds: few clouds at 1800 feet AGL
broken clouds at 4400 feet AGL
Weather: no significant weather observed at this time

METAR text: EGNT 192320Z 00000KT 6000 BKN044 02/01 Q1012
Conditions at: EGNT (NEWCASTLE , GB) observed 2320 UTC 19 January 2019
Temperature: 2.0°C (36°F)
Dewpoint: 1.0°C (34°F) [RH = 93%]
Pressure (altimeter): 29.88 inches Hg (1012.0 mb)
Winds: calm
Visibility: 4 miles ( 6 km)
Ceiling: 4400 feet AGL
Clouds: broken clouds at 4400 feet AGL
Weather: no significant weather observed at this time

METAR text: EGNT 192250Z VRB02KT 6000 BKN022 02/01 Q1012
Conditions at: EGNT (NEWCASTLE , GB) observed 2250 UTC 19 January 2019
Temperature: 2.0°C (36°F)
Dewpoint: 1.0°C (34°F) [RH = 93%]
Pressure (altimeter): 29.88 inches Hg (1012.0 mb)
Winds: variable direction winds at 2 MPH (2 knots; 1.0 m/s)
Visibility: 4 miles ( 6 km)
Ceiling: 2200 feet AGL
Clouds: broken clouds at 2200 feet AGL
Weather: no significant weather observed at this time

METAR text: EGNT 192220Z VRB02KT 4000 BR FEW006 BKN022 02/01 Q1011
Conditions at: EGNT (NEWCASTLE , GB) observed 2220 UTC 19 January 2019
Temperature: 2.0°C (36°F)
Dewpoint: 1.0°C (34°F) [RH = 93%]
Pressure (altimeter): 29.85 inches Hg (1011.0 mb)
Winds: variable direction winds at 2 MPH (2 knots; 1.0 m/s)
Visibility: 2.49 miles (4.01 km)
Ceiling: 2200 feet AGL
Clouds: few clouds at 600 feet AGL
broken clouds at 2200 feet AGL
Weather: BR  (mist)

METAR text: EGNT 192150Z 19001KT 4000 BR SCT006 BKN018 02/01 Q1011
Conditions at: EGNT (NEWCASTLE , GB) observed 2150 UTC 19 January 2019
Temperature: 2.0°C (36°F)
Dewpoint: 1.0°C (34°F) [RH = 93%]
Pressure (altimeter): 29.85 inches Hg (1011.0 mb)
Winds: from the S (190 degrees) at 1 MPH (1 knots; 0.5 m/s)
Visibility: 2.49 miles (4.01 km)
Ceiling: 1800 feet AGL
Clouds: scattered clouds at 600 feet AGL
broken clouds at 1800 feet AGL
Weather: BR  (mist)

METAR text: EGNT 192120Z 00000KT 4400 BR SCT006 BKN018 02/01 Q1011
Conditions at: EGNT (NEWCASTLE , GB) observed 2120 UTC 19 January 2019
Temperature: 2.0°C (36°F)
Dewpoint: 1.0°C (34°F) [RH = 93%]
Pressure (altimeter): 29.85 inches Hg (1011.0 mb)
Winds: calm
Visibility: 2.73 miles (4.39 km)
Ceiling: 1800 feet AGL
Clouds: scattered clouds at 600 feet AGL
broken clouds at 1800 feet AGL
Weather: BR  (mist)

METAR text: EGNT 192050Z 19001KT 4400 BR SCT006 BKN018 03/02 Q1011
Conditions at: EGNT (NEWCASTLE , GB) observed 2050 UTC 19 January 2019
Temperature: 3.0°C (37°F)
Dewpoint: 2.0°C (36°F) [RH = 93%]
Pressure (altimeter): 29.85 inches Hg (1011.0 mb)
Winds: from the S (190 degrees) at 1 MPH (1 knots; 0.5 m/s)
Visibility: 2.73 miles (4.39 km)
Ceiling: 1800 feet AGL
Clouds: scattered clouds at 600 feet AGL
broken clouds at 1800 feet AGL
Weather: BR  (mist)

METAR text: EGNT 192020Z VRB01KT 4400 BR SCT006 BKN018 03/01 Q1011
Conditions at: EGNT (NEWCASTLE , GB) observed 2020 UTC 19 January 2019
Temperature: 3.0°C (37°F)
Dewpoint: 1.0°C (34°F) [RH = 87%]
Pressure (altimeter): 29.85 inches Hg (1011.0 mb)
Winds: variable direction winds at 1 MPH (1 knots; 0.5 m/s)
Visibility: 2.73 miles (4.39 km)
Ceiling: 1800 feet AGL
Clouds: scattered clouds at 600 feet AGL
broken clouds at 1800 feet AGL
Weather: BR  (mist)

METAR text: EGNT 191950Z 17002KT 4400 BR SCT006 BKN018 03/01 Q1010
Conditions at: EGNT (NEWCASTLE , GB) observed 1950 UTC 19 January 2019
Temperature: 3.0°C (37°F)
Dewpoint: 1.0°C (34°F) [RH = 87%]
Pressure (altimeter): 29.82 inches Hg (1010.0 mb)
Winds: from the S (170 degrees) at 2 MPH (2 knots; 1.0 m/s)
Visibility: 2.73 miles (4.39 km)
Ceiling: 1800 feet AGL
Clouds: scattered clouds at 600 feet AGL
broken clouds at 1800 feet AGL
Weather: BR  (mist)

METAR text: EGNT 191920Z 00000KT 4000 BR SCT006 BKN018 03/02 Q1010
Conditions at: EGNT (NEWCASTLE , GB) observed 1920 UTC 19 January 2019
Temperature: 3.0°C (37°F)
Dewpoint: 2.0°C (36°F) [RH = 93%]
Pressure (altimeter): 29.82 inches Hg (1010.0 mb)
Winds: calm
Visibility: 2.49 miles (4.01 km)
Ceiling: 1800 feet AGL
Clouds: scattered clouds at 600 feet AGL
broken clouds at 1800 feet AGL
Weather: BR  (mist)

METAR text: EGNT 191850Z 18003KT 4200 BR SCT006 BKN018 03/01 Q1010
Conditions at: EGNT (NEWCASTLE , GB) observed 1850 UTC 19 January 2019
Temperature: 3.0°C (37°F)
Dewpoint: 1.0°C (34°F) [RH = 87%]
Pressure (altimeter): 29.82 inches Hg (1010.0 mb)
Winds: from the S (180 degrees) at 3 MPH (3 knots; 1.5 m/s)
Visibility: 2.61 miles (4.20 km)
Ceiling: 1800 feet AGL
Clouds: scattered clouds at 600 feet AGL
broken clouds at 1800 feet AGL
Weather: BR  (mist)

METAR text: EGNT 191820Z 19003KT 4200 BR BKN006 03/01 Q1010
Conditions at: EGNT (NEWCASTLE , GB) observed 1820 UTC 19 January 2019
Temperature: 3.0°C (37°F)
Dewpoint: 1.0°C (34°F) [RH = 87%]
Pressure (altimeter): 29.82 inches Hg (1010.0 mb)
Winds: from the S (190 degrees) at 3 MPH (3 knots; 1.5 m/s)
Visibility: 2.61 miles (4.20 km)
Ceiling: 600 feet AGL
Clouds: broken clouds at 600 feet AGL
Weather: BR  (mist)

METAR text: EGNT 191750Z VRB03KT 4500 BR BKN007 02/01 Q1010
Conditions at: EGNT (NEWCASTLE , GB) observed 1750 UTC 19 January 2019
Temperature: 2.0°C (36°F)
Dewpoint: 1.0°C (34°F) [RH = 93%]
Pressure (altimeter): 29.82 inches Hg (1010.0 mb)
Winds: variable direction winds at 3 MPH (3 knots; 1.5 m/s)
Visibility: 2.80 miles (4.51 km)
Ceiling: 700 feet AGL
Clouds: broken clouds at 700 feet AGL
Weather: BR  (mist)

METAR text: EGNT 191720Z VRB03KT 5000 BR BKN007 02/01 Q1009
Conditions at: EGNT (NEWCASTLE , GB) observed 1720 UTC 19 January 2019
Temperature: 2.0°C (36°F)
Dewpoint: 1.0°C (34°F) [RH = 93%]
Pressure (altimeter): 29.79 inches Hg (1009.0 mb)
Winds: variable direction winds at 3 MPH (3 knots; 1.5 m/s)
Visibility: 3 miles ( 5 km)
Ceiling: 700 feet AGL
Clouds: broken clouds at 700 feet AGL
Weather: BR  (mist)

METAR text: EGNT 191650Z 17005KT 5000 BR BKN008 02/01 Q1009
Conditions at: EGNT (NEWCASTLE , GB) observed 1650 UTC 19 January 2019
Temperature: 2.0°C (36°F)
Dewpoint: 1.0°C (34°F) [RH = 93%]
Pressure (altimeter): 29.79 inches Hg (1009.0 mb)
Winds: from the S (170 degrees) at 6 MPH (5 knots; 2.6 m/s)
Visibility: 3 miles ( 5 km)
Ceiling: 800 feet AGL
Clouds: broken clouds at 800 feet AGL
Weather: BR  (mist)

METAR text: EGNT 191620Z 16004KT 110V220 5000 BR BKN008 02/01 Q1009
Conditions at: EGNT (NEWCASTLE , GB) observed 1620 UTC 19 January 2019
Temperature: 2.0°C (36°F)
Dewpoint: 1.0°C (34°F) [RH = 93%]
Pressure (altimeter): 29.79 inches Hg (1009.0 mb)
Winds: from the SSE (160 degrees) at 5 MPH (4 knots; 2.1 m/s)
Visibility: 3 miles ( 5 km)
Ceiling: 800 feet AGL
Clouds: broken clouds at 800 feet AGL
Weather: BR  (mist)

METAR text: EGNT 191550Z 17007KT 130V200 6000 BKN008 03/01 Q1009
Conditions at: EGNT (NEWCASTLE , GB) observed 1550 UTC 19 January 2019
Temperature: 3.0°C (37°F)
Dewpoint: 1.0°C (34°F) [RH = 87%]
Pressure (altimeter): 29.79 inches Hg (1009.0 mb)
Winds: from the S (170 degrees) at 8 MPH (7 knots; 3.6 m/s)
Visibility: 4 miles ( 6 km)
Ceiling: 800 feet AGL
Clouds: broken clouds at 800 feet AGL
Weather: no significant weather observed at this time

METAR text: EGNT 191520Z 17004KT 110V200 8000 BKN009 03/01 Q1009
Conditions at: EGNT (NEWCASTLE , GB) observed 1520 UTC 19 January 2019
Temperature: 3.0°C (37°F)
Dewpoint: 1.0°C (34°F) [RH = 87%]
Pressure (altimeter): 29.79 inches Hg (1009.0 mb)
Winds: from the S (170 degrees) at 5 MPH (4 knots; 2.1 m/s)
Visibility: 5 miles ( 8 km)
Ceiling: 900 feet AGL
Clouds: broken clouds at 900 feet AGL
Weather: no significant weather observed at this time

METAR text: EGNT 191450Z 15006KT 110V190 8000 SCT008 BKN034 03/01 Q1008
Conditions at: EGNT (NEWCASTLE , GB) observed 1450 UTC 19 January 2019
Temperature: 3.0°C (37°F)
Dewpoint: 1.0°C (34°F) [RH = 87%]
Pressure (altimeter): 29.76 inches Hg (1008.0 mb)
Winds: from the SSE (150 degrees) at 7 MPH (6 knots; 3.1 m/s)
Visibility: 5 miles ( 8 km)
Ceiling: 3400 feet AGL
Clouds: scattered clouds at 800 feet AGL
broken clouds at 3400 feet AGL
Weather: no significant weather observed at this time

METAR text: EGNT 191420Z 16005KT 120V190 8000 BKN009 03/01 Q1008
Conditions at: EGNT (NEWCASTLE , GB) observed 1420 UTC 19 January 2019
Temperature: 3.0°C (37°F)
Dewpoint: 1.0°C (34°F) [RH = 87%]
Pressure (altimeter): 29.76 inches Hg (1008.0 mb)
Winds: from the SSE (160 degrees) at 6 MPH (5 knots; 2.6 m/s)
Visibility: 5 miles ( 8 km)
Ceiling: 900 feet AGL
Clouds: broken clouds at 900 feet AGL
Weather: no significant weather observed at this time

METAR text: EGNT 191350Z 17005KT 120V200 8000 BKN009 03/01 Q1009
Conditions at: EGNT (NEWCASTLE , GB) observed 1350 UTC 19 January 2019
Temperature: 3.0°C (37°F)
Dewpoint: 1.0°C (34°F) [RH = 87%]
Pressure (altimeter): 29.79 inches Hg (1009.0 mb)
Winds: from the S (170 degrees) at 6 MPH (5 knots; 2.6 m/s)
Visibility: 5 miles ( 8 km)
Ceiling: 900 feet AGL
Clouds: broken clouds at 900 feet AGL
Weather: no significant weather observed at this time

METAR text: EGNT 191320Z 17005KT 130V200 8000 BKN009 03/01 Q1009
Conditions at: EGNT (NEWCASTLE , GB) observed 1320 UTC 19 January 2019
Temperature: 3.0°C (37°F)
Dewpoint: 1.0°C (34°F) [RH = 87%]
Pressure (altimeter): 29.79 inches Hg (1009.0 mb)
Winds: from the S (170 degrees) at 6 MPH (5 knots; 2.6 m/s)
Visibility: 5 miles ( 8 km)
Ceiling: 900 feet AGL
Clouds: broken clouds at 900 feet AGL
Weather: no significant weather observed at this time

METAR text: EGNT 191250Z 19004KT 8000 BKN009 03/01 Q1009
Conditions at: EGNT (NEWCASTLE , GB) observed 1250 UTC 19 January 2019
Temperature: 3.0°C (37°F)
Dewpoint: 1.0°C (34°F) [RH = 87%]
Pressure (altimeter): 29.79 inches Hg (1009.0 mb)
Winds: from the S (190 degrees) at 5 MPH (4 knots; 2.1 m/s)
Visibility: 5 miles ( 8 km)
Ceiling: 900 feet AGL
Clouds: broken clouds at 900 feet AGL
Weather: no significant weather observed at this time

Forecast for: EGNT (NEWCASTLE , GB)
Text: TAF EGNT 202259Z 2100/2124 24004KT 9999 FEW025
Forecast period: 0000 to 1200 UTC 21 January 2019
Forecast type: FROM: standard forecast or significant change
Winds: from the WSW (240 degrees) at 5 MPH (4 knots; 2.1 m/s)
Visibility: 6 or more miles 10+ km)
Ceiling: at least 12,000 feet AGL
Clouds: few clouds at 2500 feet AGL
Weather: no significant weather forecast for this period
Text: PROB30 2100/2110 7000
Forecast period: 0000 to 1000 UTC 21 January 2019
Forecast type: PROBABLE: 30 percent likelihood of the following during this time
Visibility: 4 miles (7 km)
Ceiling: unknown
Clouds: missing
Weather: no significant weather forecast for this period
Text: BECMG 2112/2115 17012KT
Forecast period: 1200 UTC 21 January 2019 to 0000 UTC 22 January 2019
Forecast type: BECOMING: Conditions expected to become as follows by 1500 UTC 21 January 2019
Winds: from the S (170 degrees) at 14 MPH (12 knots; 6.2 m/s)
Visibility: 6 or more miles 10+ km)
Ceiling: at least 12,000 feet AGL
Clouds: few clouds at 2500 feet AGL
Weather: no significant weather forecast for this period
Text: TEMPO 2118/2124 8000 -RA
Forecast period: 1800 UTC 21 January 2019 to 0000 UTC 22 January 2019
Forecast type: TEMPORARY: The following changes expected for less than half the time period
Visibility: 5 miles (8 km)
Ceiling: unknown
Clouds: missing
Weather: -RA  (light rain)
Text: PROB30
Forecast period: 2100 UTC 21 January 2019 to 0000 UTC 22 January 2019
Forecast type: TEMPORARY: The following changes expected for less than half the time period
Winds: from the S (190 degrees) at 17 MPH (15 knots; 7.7 m/s)
gusting to 29 MPH (25 knots; 12.9 m/s)
Visibility: missing
Ceiling: 1400 feet AGL
Clouds: broken clouds at 1400 feet AGL
Weather: RA  (moderate rain)